Norfolk, VA (23513)

7:17 PM EDT on August 31, 2015 (GMT -0400)
Norview | | Change Station
CLOSE
Current Station
Personal Weather Station
Location: Norfolk, VA
Elevation: 16 ft
Nearby Weather Stations

Elev 16 ft 36.89 °N, 76.25 °W | Updated 1 second ago

Overcast
Overcast
75.9 °F
Feels Like 78 °F
N
0.0
Wind Variable Wind from South
Gusts 0.0 mph

Today
High -- | Low -- °F
--% Chance of Precip.
Yesterday
High -- | Low -- °F
Precip. -- in
6:34 AM 7:35 PM
Waning Gibbous, 93% visible
Pressure 30.08 in
Visibility 10.0 miles
Clouds Few 1900 ft
Mostly Cloudy 6000 ft
Overcast 8000 ft
Heat Index 78 °F
Dew Point 52 °F
Humidity 43%
Rainfall 0.14 in
Snow Depth Not available.
UV 0 out of 12
Pollen 8.10 out of 12
Air Quality Not available.
Flu Activity Not available.
METAR KORF 312251Z AUTO 19004KT 10SM FEW019 BKN060 OVC080 24/19 A3008 RMK AO2 SLP184 T02440194 TSNO $
Pressure 30.08 in
Visibility 10.0 miles
Clouds Few 1900 ft
Mostly Cloudy 6000 ft
Overcast 8000 ft
Heat Index 78 °F
Dew Point 52 °F
Humidity 43%
Rainfall 0.14 in
Snow Depth Not available.
UV 0 out of 12
Pollen 8.10 out of 12
Air Quality Not available.
Flu Activity Not available.
METAR KORF 312251Z AUTO 19004KT 10SM FEW019 BKN060 OVC080 24/19 A3008 RMK AO2 SLP184 T02440194 TSNO $

10-Day Weather Forecast

×

Almanac

Astronomy

Aug. 31, 2015 Rise Set
Actual Time
Civil Twilight
Nautical Twilight
Astronomical Twilight
Moon
Length of Visible Light
Length of Day
Tomorrow will be .
, % of the Moon is Illuminated

Today's Extremes

State Highs State Lows

Community

WunderPhotos

Upload Photos

1,851,390 photos uploaded!

WunderBlogs® & News

Nearby

Air Quality

  Air Quality AQ Index Pollutant
Not available.

Snow Depth

Station Depth Elevation

Earthquake Activity

City Distance Mag. Time & Date
Minimum magnitude displayed is 2.5.

Coastal Water Temperatures

Place Temperature

Stations

Nearby Weather Stations

Station Location Temp. Windchill Dew Point Humidity Wind Precip. Elev Updated Type